Time;durP1;ratioP1;P1;durP2;ratioP2;P2;SDS_P1;SDS_P2;PMS_P1;PMS_P2;Temp;Humidity;BMP_temperature;BMP_pressure;BME280_temperature;BME280_humidity;BME280_pressure;Samples;Min_cycle;Max_cycle;Signal;HPM_P1;HPM_P2
2021/03/03 00:02:20;;;;;;;14.05;6.63;;;24.40;65.80;;;;;;5052938;28;20037;-70
2021/03/03 00:04:47;;;;;;;17.17;6.22;;;24.40;65.80;;;;;;5070300;28;20035;-69
2021/03/03 00:07:15;;;;;;;14.52;5.70;;;24.40;65.90;;;;;;5070905;28;20059;-70
2021/03/03 00:09:42;;;;;;;11.20;5.80;;;24.40;66.10;;;;;;5072442;28;20031;-70
2021/03/03 00:12:10;;;;;;;9.73;5.05;;;24.40;66.20;;;;;;5072331;28;20029;-69
2021/03/03 00:14:37;;;;;;;11.30;5.88;;;24.40;66.30;;;;;;5051246;28;20056;-69
2021/03/03 00:17:04;;;;;;;13.57;4.65;;;24.40;66.50;;;;;;5071546;28;20039;-70
2021/03/03 00:19:31;;;;;;;8.52;4.50;;;24.30;66.60;;;;;;5037262;28;20369;-71
2021/03/03 00:21:58;;;;;;;10.35;4.45;;;24.40;66.80;;;;;;5032414;28;20627;-70
2021/03/03 00:24:25;;;;;;;10.48;4.32;;;24.30;66.80;;;;;;5047819;28;20020;-69
2021/03/03 00:26:51;;;;;;;10.82;5.10;;;24.40;67.00;;;;;;5031589;28;20025;-69
2021/03/03 00:29:18;;;;;;;7.25;4.50;;;24.30;67.00;;;;;;5049669;28;20032;-72
2021/03/03 00:31:45;;;;;;;9.88;4.68;;;24.40;67.10;;;;;;5049503;28;20103;-70
2021/03/03 00:34:11;;;;;;;10.80;4.70;;;24.40;67.20;;;;;;5048799;28;20017;-69
2021/03/03 00:36:38;;;;;;;9.18;4.65;;;24.30;67.30;;;;;;5046910;28;20587;-69
2021/03/03 00:39:05;;;;;;;8.02;5.28;;;24.30;67.40;;;;;;5048641;28;20029;-70
2021/03/03 00:41:31;;;;;;;12.63;6.47;;;24.30;67.50;;;;;;5031164;28;20013;-73
2021/03/03 00:43:58;;;;;;;14.45;6.40;;;24.30;67.50;;;;;;5049452;28;20028;-73
2021/03/03 00:46:25;;;;;;;11.85;7.13;;;24.30;67.60;;;;;;5047799;28;20449;-70
2021/03/03 00:48:51;;;;;;;12.02;5.45;;;24.30;67.60;;;;;;5049234;28;20025;-69
2021/03/03 00:51:18;;;;;;;13.50;6.07;;;24.30;67.70;;;;;;5049952;28;20013;-70
2021/03/03 00:53:46;;;;;;;13.70;7.72;;;24.30;67.80;;;;;;5047961;28;20017;-70
2021/03/03 00:56:12;;;;;;;10.82;5.57;;;24.30;67.80;;;;;;5048827;28;20045;-70
2021/03/03 00:58:39;;;;;;;14.80;6.28;;;24.30;67.80;;;;;;5047450;28;20025;-70
2021/03/03 01:01:06;;;;;;;13.68;7.53;;;24.30;67.90;;;;;;5042880;28;20057;-70
2021/03/03 01:03:32;;;;;;;14.23;6.75;;;24.30;68.00;;;;;;5049409;28;20017;-70
2021/03/03 01:05:59;;;;;;;11.23;6.45;;;24.30;68.10;;;;;;5048869;28;20099;-70
2021/03/03 01:08:26;;;;;;;8.38;5.55;;;24.30;68.10;;;;;;5048237;28;20028;-70
2021/03/03 01:10:52;;;;;;;9.48;5.22;;;24.30;68.20;;;;;;5046553;28;20492;-73
2021/03/03 01:13:19;;;;;;;15.60;6.10;;;24.30;68.30;;;;;;5048276;28;20040;-70
2021/03/03 01:15:45;;;;;;;13.90;6.13;;;24.30;68.40;;;;;;5048520;28;20075;-70
2021/03/03 01:18:12;;;;;;;10.05;4.97;;;24.30;68.50;;;;;;5048805;28;20040;-70
2021/03/03 01:20:38;;;;;;;10.45;5.00;;;24.30;68.60;;;;;;5030129;28;20114;-70
2021/03/03 01:23:07;;;;;;;9.35;4.35;;;24.20;68.70;;;;;;5043985;28;20488;-70
2021/03/03 01:25:34;;;;;;;9.40;4.50;;;24.30;68.80;;;;;;5049644;28;20036;-70
2021/03/03 01:28:00;;;;;;;14.77;4.97;;;24.30;68.90;;;;;;5046048;28;20025;-70
2021/03/03 01:30:27;;;;;;;15.82;6.55;;;24.20;68.90;;;;;;5048719;28;20017;-72
2021/03/03 01:32:54;;;;;;;10.95;4.45;;;24.20;68.90;;;;;;5047433;28;20009;-71
2021/03/03 01:35:20;;;;;;;6.43;4.05;;;24.20;69.00;;;;;;5046875;28;20476;-72
2021/03/03 01:37:47;;;;;;;13.02;6.10;;;24.20;69.00;;;;;;5047897;28;20039;-72
2021/03/03 01:40:14;;;;;;;9.90;4.80;;;24.20;69.00;;;;;;5047426;28;20411;-74
2021/03/03 01:42:41;;;;;;;11.15;4.72;;;24.20;69.10;;;;;;5048123;28;20024;-73
2021/03/03 01:45:08;;;;;;;14.88;4.70;;;24.20;69.10;;;;;;5047269;28;20431;-70
2021/03/03 01:47:35;;;;;;;10.15;5.15;;;24.20;69.20;;;;;;5048430;28;20025;-70
2021/03/03 01:50:05;;;;;;;8.52;5.32;;;24.20;69.20;;;;;;5046610;28;20060;-70
2021/03/03 01:52:33;;;;;;;8.98;6.20;;;24.20;69.20;;;;;;5042955;28;20495;-70
2021/03/03 01:54:59;;;;;;;13.32;6.65;;;24.20;69.30;;;;;;5047385;28;20112;-73
2021/03/03 01:57:27;;;;;;;13.15;5.97;;;24.20;69.30;;;;;;5045464;28;20028;-70
2021/03/03 01:59:53;;;;;;;12.80;7.72;;;24.20;69.30;;;;;;5046645;28;20549;-74
2021/03/03 02:02:23;;;;;;;13.50;6.07;;;24.20;69.40;;;;;;5047183;28;20068;-74
2021/03/03 02:04:55;;;;;;;10.25;5.80;;;24.10;69.40;;;;;;5048197;28;20078;-73
2021/03/03 02:08:04;;;;;;;9.80;4.35;;;24.20;69.40;;;;;;5046476;28;20370;-73
2021/03/03 02:11:18;;;;;;;10.77;4.30;;;24.10;69.30;;;;;;5033115;28;20040;-72
2021/03/03 02:13:49;;;;;;;8.52;3.60;;;24.10;69.30;;;;;;5009113;28;20066;-73
2021/03/03 02:16:19;;;;;;;7.38;3.33;;;24.20;69.40;;;;;;5030086;28;20388;-70
2021/03/03 02:18:48;;;;;;;12.52;3.30;;;24.10;69.30;;;;;;5032002;28;20056;-74
2021/03/03 02:21:42;;;;;;;5.22;2.70;;;24.10;69.30;;;;;;5069404;28;20036;-73
2021/03/03 02:24:21;;;;;;;5.25;3.55;;;24.20;69.40;;;;;;5066978;28;20032;-73
2021/03/03 02:26:51;;;;;;;8.60;2.83;;;24.10;69.40;;;;;;5069837;28;20016;-73
2021/03/03 02:29:36;;;;;;;6.82;3.15;;;24.10;69.40;;;;;;5069490;28;20017;-74
2021/03/03 02:32:03;;;;;;;6.85;2.90;;;24.10;69.40;;;;;;5066531;28;20031;-72
2021/03/03 02:34:31;;;;;;;7.85;2.85;;;24.10;69.50;;;;;;5069378;28;20479;-73
2021/03/03 02:36:58;;;;;;;10.82;3.15;;;24.10;69.60;;;;;;5065620;28;20539;-72
2021/03/03 02:39:27;;;;;;;6.18;2.85;;;24.10;69.60;;;;;;5070350;28;20544;-73
2021/03/03 02:41:55;;;;;;;15.75;5.07;;;24.10;69.60;;;;;;5067546;28;20176;-70
2021/03/03 02:44:22;;;;;;;7.95;3.30;;;24.10;69.60;;;;;;5067618;28;20024;-69
2021/03/03 02:46:49;;;;;;;7.90;3.05;;;24.10;69.60;;;;;;5069652;28;20475;-71
2021/03/03 02:49:19;;;;;;;9.48;4.30;;;24.10;69.60;;;;;;5067303;28;20040;-70
2021/03/03 02:51:46;;;;;;;20.27;6.05;;;24.10;69.60;;;;;;5069471;28;20025;-69
2021/03/03 02:54:16;;;;;;;13.38;5.88;;;24.10;69.50;;;;;;5069205;28;20017;-70
2021/03/03 02:56:43;;;;;;;16.15;6.43;;;24.10;69.20;;;;;;5069564;28;20126;-71
2021/03/03 02:59:20;;;;;;;13.95;6.68;;;24.10;69.10;;;;;;5067724;28;20073;-71
2021/03/03 03:01:49;;;;;;;15.40;6.60;;;24.00;68.80;;;;;;5069260;28;20028;-70
2021/03/03 03:04:18;;;;;;;15.68;6.80;;;24.00;68.70;;;;;;5067346;28;20017;-70
2021/03/03 03:06:46;;;;;;;13.95;5.28;;;24.00;68.60;;;;;;5067829;28;20362;-70
2021/03/03 03:09:16;;;;;;;15.70;6.78;;;24.00;68.50;;;;;;5072353;28;20012;-70
2021/03/03 03:11:50;;;;;;;18.13;5.72;;;24.00;68.40;;;;;;5073387;28;20024;-70
2021/03/03 03:14:27;;;;;;;14.07;5.68;;;24.00;68.30;;;;;;5070699;28;20095;-70
2021/03/03 03:16:57;;;;;;;19.33;6.32;;;24.00;68.30;;;;;;5072739;28;20028;-70
2021/03/03 03:19:29;;;;;;;11.45;4.60;;;24.00;68.20;;;;;;5070805;28;20076;-70
2021/03/03 03:21:57;;;;;;;15.00;4.93;;;23.90;68.10;;;;;;5070171;28;20017;-70
2021/03/03 03:24:25;;;;;;;16.98;5.03;;;23.90;68.30;;;;;;5070889;28;20016;-69
2021/03/03 03:26:53;;;;;;;14.65;4.90;;;23.90;68.20;;;;;;5052509;28;20601;-73
2021/03/03 03:29:20;;;;;;;17.50;5.45;;;23.90;69.00;;;;;;5072366;28;20021;-71
2021/03/03 03:31:48;;;;;;;14.10;5.05;;;23.90;68.40;;;;;;5072081;28;20529;-70
2021/03/03 03:34:15;;;;;;;10.50;4.88;;;23.90;68.40;;;;;;5071127;28;20020;-70
2021/03/03 03:36:43;;;;;;;12.75;4.78;;;23.90;68.50;;;;;;5071309;28;20510;-73
2021/03/03 03:39:12;;;;;;;11.63;4.75;;;23.90;68.50;;;;;;5073064;28;20013;-72
2021/03/03 03:41:41;;;;;;;18.15;5.25;;;23.90;68.60;;;;;;5053297;28;20600;-71
2021/03/03 03:44:09;;;;;;;16.33;5.72;;;23.90;68.70;;;;;;5069851;28;20028;-70
2021/03/03 03:46:37;;;;;;;19.27;6.97;;;23.90;68.70;;;;;;5070311;28;20074;-80
2021/03/03 03:49:05;;;;;;;16.23;5.80;;;23.90;68.70;;;;;;5070679;28;20371;-73
2021/03/03 03:51:32;;;;;;;16.45;5.57;;;23.80;68.60;;;;;;5071550;28;20021;-72
2021/03/03 03:54:00;;;;;;;18.80;5.90;;;23.80;68.60;;;;;;5070825;28;20062;-72
2021/03/03 03:56:27;;;;;;;12.43;5.07;;;23.80;68.50;;;;;;5070270;28;20044;-72
2021/03/03 03:58:54;;;;;;;19.42;6.45;;;23.80;68.50;;;;;;5068721;28;20021;-69
2021/03/03 04:01:20;;;;;;;11.77;5.38;;;23.80;68.50;;;;;;5070795;28;20149;-70
2021/03/03 04:03:47;;;;;;;15.77;5.10;;;23.80;68.50;;;;;;5072261;28;20032;-70
2021/03/03 04:06:14;;;;;;;13.90;4.50;;;23.80;68.50;;;;;;5069104;28;20037;-69
2021/03/03 04:08:40;;;;;;;14.52;4.80;;;23.80;68.50;;;;;;5073018;28;20561;-70
2021/03/03 04:11:07;;;;;;;21.08;7.97;;;23.80;68.50;;;;;;5072107;28;20017;-77
2021/03/03 04:13:33;;;;;;;32.15;14.50;;;23.80;68.50;;;;;;5070413;28;20016;-71
2021/03/03 04:16:00;;;;;;;32.45;17.63;;;23.80;68.80;;;;;;5070214;28;20394;-71
2021/03/03 04:18:26;;;;;;;30.40;13.52;;;23.80;69.20;;;;;;5071065;28;20017;-72
2021/03/03 04:20:53;;;;;;;21.85;10.50;;;23.70;69.30;;;;;;5070083;28;20028;-76
2021/03/03 04:23:19;;;;;;;23.88;9.85;;;23.70;69.30;;;;;;5070090;28;20103;-74
2021/03/03 04:25:46;;;;;;;26.38;7.50;;;23.70;69.30;;;;;;5070853;28;20025;-74
2021/03/03 04:28:13;;;;;;;17.45;7.32;;;23.70;69.30;;;;;;5068498;28;20035;-72
2021/03/03 04:30:39;;;;;;;28.52;7.80;;;23.70;69.30;;;;;;5070552;28;20112;-75
2021/03/03 04:33:07;;;;;;;24.55;9.13;;;23.70;69.30;;;;;;5069582;28;21230;-75
2021/03/03 04:35:34;;;;;;;21.05;8.07;;;23.70;69.30;;;;;;5072288;28;20043;-74
2021/03/03 04:38:00;;;;;;;26.92;8.80;;;23.70;69.30;;;;;;5069722;28;20025;-75
2021/03/03 04:40:27;;;;;;;20.85;8.63;;;23.70;69.40;;;;;;5052430;28;20074;-78
2021/03/03 04:42:54;;;;;;;29.33;9.23;;;23.70;69.50;;;;;;5073516;28;20024;-71
2021/03/03 04:45:20;;;;;;;19.58;8.60;;;23.70;69.70;;;;;;5071627;28;20009;-73
2021/03/03 04:47:47;;;;;;;15.82;7.25;;;23.70;69.80;;;;;;5071377;28;20074;-72
2021/03/03 04:50:13;;;;;;;18.38;6.47;;;23.70;69.80;;;;;;5067919;28;20071;-72
2021/03/03 04:52:40;;;;;;;8.70;5.78;;;23.70;70.00;;;;;;5068610;28;20096;-73
2021/03/03 04:55:07;;;;;;;12.65;7.75;;;23.70;70.10;;;;;;5069467;28;20411;-73
2021/03/03 04:57:34;;;;;;;11.10;5.63;;;23.70;70.10;;;;;;5073656;28;20047;-72
2021/03/03 05:00:01;;;;;;;7.70;4.65;;;23.70;70.20;;;;;;5070637;28;20148;-71
2021/03/03 05:02:27;;;;;;;10.27;5.00;;;23.70;70.20;;;;;;5070572;28;20016;-71
2021/03/03 05:04:54;;;;;;;10.30;4.63;;;23.70;70.20;;;;;;5071557;28;20063;-72
2021/03/03 05:07:21;;;;;;;9.60;4.60;;;23.80;70.30;;;;;;5069638;28;20090;-71
2021/03/03 05:09:47;;;;;;;7.50;4.68;;;23.80;70.30;;;;;;5070256;28;20497;-72
2021/03/03 05:12:14;;;;;;;10.57;4.80;;;23.80;70.40;;;;;;5070611;28;20029;-72
2021/03/03 05:14:40;;;;;;;17.20;5.07;;;23.80;70.40;;;;;;5068498;28;20687;-72
2021/03/03 05:17:07;;;;;;;6.90;4.18;;;23.80;70.40;;;;;;5070277;28;20446;-71
2021/03/03 05:19:33;;;;;;;10.25;4.63;;;23.80;70.10;;;;;;5071040;28;20048;-71
2021/03/03 05:22:00;;;;;;;13.48;4.38;;;23.70;69.70;;;;;;5070080;28;20060;-72
2021/03/03 05:24:27;;;;;;;9.43;3.65;;;23.70;69.30;;;;;;5051092;28;20414;-71
2021/03/03 05:26:53;;;;;;;11.80;3.83;;;23.70;68.90;;;;;;5070966;28;20045;-71
2021/03/03 05:29:20;;;;;;;10.48;4.65;;;23.70;68.50;;;;;;5068356;28;20112;-71
2021/03/03 05:31:46;;;;;;;5.22;3.17;;;23.70;68.20;;;;;;5070025;28;20479;-72
2021/03/03 05:34:13;;;;;;;12.57;4.10;;;23.70;67.90;;;;;;5068648;28;20025;-72
2021/03/03 05:36:39;;;;;;;6.68;3.63;;;23.70;67.70;;;;;;5068286;28;20017;-71
2021/03/03 05:39:06;;;;;;;11.45;4.38;;;23.70;67.60;;;;;;5069297;28;20042;-72
2021/03/03 05:41:32;;;;;;;8.98;3.55;;;23.70;67.50;;;;;;5070875;28;20036;-72
2021/03/03 05:44:00;;;;;;;7.35;2.75;;;23.70;67.40;;;;;;5071012;28;20610;-71
2021/03/03 05:46:27;;;;;;;5.38;2.78;;;23.70;67.30;;;;;;5070227;28;20504;-72
2021/03/03 05:49:00;;;;;;;5.50;3.15;;;23.70;67.40;;;;;;5069614;28;20097;-72
2021/03/03 05:51:27;;;;;;;6.43;3.38;;;23.70;67.30;;;;;;5067628;28;20121;-71
2021/03/03 05:53:55;;;;;;;7.28;3.42;;;23.70;67.40;;;;;;5069932;28;20033;-72
2021/03/03 05:56:23;;;;;;;10.57;3.38;;;23.80;67.40;;;;;;5052228;28;20033;-72
2021/03/03 05:58:49;;;;;;;6.28;2.67;;;23.70;67.40;;;;;;5068954;28;20016;-71
2021/03/03 06:01:17;;;;;;;10.07;3.65;;;23.80;67.60;;;;;;5068576;28;20823;-71
2021/03/03 06:03:44;;;;;;;7.53;2.85;;;23.80;67.50;;;;;;5068469;28;20016;-72
2021/03/03 06:06:12;;;;;;;10.18;3.70;;;23.80;67.60;;;;;;5068912;28;20027;-72
2021/03/03 06:08:39;;;;;;;6.97;3.28;;;23.80;67.60;;;;;;5071117;28;20498;-72
2021/03/03 06:11:05;;;;;;;8.38;3.47;;;23.90;67.60;;;;;;5069076;28;20025;-72
2021/03/03 06:13:33;;;;;;;6.03;3.20;;;23.80;67.50;;;;;;5069434;28;20090;-71
2021/03/03 06:15:59;;;;;;;3.70;2.28;;;23.90;67.60;;;;;;5068635;28;20107;-71
2021/03/03 06:18:26;;;;;;;6.85;4.50;;;23.90;67.60;;;;;;5069130;28;20472;-71
2021/03/03 06:20:57;;;;;;;5.63;2.92;;;23.90;67.60;;;;;;5069397;28;20028;-71
2021/03/03 06:23:31;;;;;;;9.23;3.80;;;23.90;67.60;;;;;;5067400;28;20024;-71
2021/03/03 06:25:57;;;;;;;7.77;3.00;;;23.90;67.70;;;;;;5068736;28;20414;-71
2021/03/03 06:28:40;;;;;;;7.93;3.05;;;23.90;67.70;;;;;;5069434;28;20257;-71
2021/03/03 06:31:34;;;;;;;7.60;3.75;;;23.90;67.70;;;;;;5070054;28;20012;-71
2021/03/03 06:34:14;;;;;;;6.00;2.67;;;23.90;67.80;;;;;;5055708;28;20044;-71
2021/03/03 06:36:43;;;;;;;6.05;3.15;;;24.00;68.00;;;;;;5069459;28;20032;-71
2021/03/03 06:39:22;;;;;;;5.35;3.28;;;24.00;68.20;;;;;;5066180;28;20104;-71
2021/03/03 06:41:50;;;;;;;6.85;3.22;;;24.00;68.40;;;;;;5069172;28;20020;-71
2021/03/03 06:44:18;;;;;;;7.97;3.70;;;24.00;68.50;;;;;;5068517;28;20505;-71
2021/03/03 06:47:01;;;;;;;9.93;3.15;;;24.00;68.60;;;;;;5069250;28;20013;-71
2021/03/03 06:49:28;;;;;;;9.15;3.92;;;24.00;68.60;;;;;;5068954;28;20391;-71
2021/03/03 06:51:55;;;;;;;6.88;3.63;;;24.00;68.70;;;;;;5069135;28;20020;-71
2021/03/03 06:54:25;;;;;;;9.27;3.47;;;24.10;68.70;;;;;;5069617;28;20021;-70
2021/03/03 06:56:53;;;;;;;8.38;4.07;;;24.10;68.80;;;;;;5051400;28;20024;-71
2021/03/03 06:59:20;;;;;;;6.65;3.35;;;24.10;68.80;;;;;;5047236;28;20108;-71
2021/03/03 07:01:51;;;;;;;6.28;2.88;;;24.10;68.70;;;;;;5070911;28;20489;-71
2021/03/03 07:04:19;;;;;;;12.13;3.50;;;24.10;68.60;;;;;;5067957;28;20463;-71
2021/03/03 07:06:46;;;;;;;6.35;2.90;;;24.10;68.60;;;;;;5068271;28;20027;-71
2021/03/03 07:09:13;;;;;;;8.35;3.10;;;24.10;68.60;;;;;;5069266;28;20009;-71
2021/03/03 07:11:43;;;;;;;12.18;4.88;;;24.10;68.50;;;;;;5068500;28;20039;-71
2021/03/03 07:14:27;;;;;;;12.00;5.07;;;24.10;68.50;;;;;;5069770;28;20021;-71
2021/03/03 07:17:23;;;;;;;12.88;5.03;;;24.10;68.50;;;;;;5065969;28;20574;-72
2021/03/03 07:20:00;;;;;;;8.18;4.50;;;24.10;68.40;;;;;;5067477;28;20091;-72
2021/03/03 07:22:36;;;;;;;6.45;3.15;;;24.20;68.50;;;;;;5065261;28;20029;-72
2021/03/03 07:25:07;;;;;;;4.18;3.25;;;24.20;68.50;;;;;;5068768;28;20021;-72
2021/03/03 07:27:35;;;;;;;9.20;3.00;;;24.20;68.40;;;;;;5070098;28;20100;-72
2021/03/03 07:30:07;;;;;;;5.75;2.58;;;24.30;68.40;;;;;;5066595;28;20029;-72
2021/03/03 07:32:34;;;;;;;9.35;2.85;;;24.30;68.20;;;;;;5067127;28;20045;-72
2021/03/03 07:35:02;;;;;;;5.85;3.15;;;24.30;68.10;;;;;;5067031;28;20534;-72
2021/03/03 07:37:36;;;;;;;6.50;2.92;;;24.40;68.00;;;;;;5069189;28;20035;-72
2021/03/03 07:40:08;;;;;;;6.82;2.50;;;24.40;67.90;;;;;;5069051;28;20033;-72
2021/03/03 07:42:36;;;;;;;4.38;2.05;;;24.40;67.70;;;;;;5065562;28;20115;-72
2021/03/03 07:45:55;;;;;;;7.93;2.35;;;24.50;67.50;;;;;;5070500;28;20119;-72
2021/03/03 07:49:01;;;;;;;5.05;2.10;;;24.50;67.30;;;;;;5068960;28;20035;-72
2021/03/03 07:51:46;;;;;;;;;;;24.50;67.10;;;;;;5065362;28;20021;-72
2021/03/03 07:54:53;;;;;;;4.68;1.67;;;24.50;67.00;;;;;;5070829;28;19908;-72
2021/03/03 07:57:38;;;;;;;;;;;24.60;66.90;;;;;;5069328;28;20604;-72
2021/03/03 08:00:47;;;;;;;8.07;2.20;;;24.60;66.90;;;;;;5068862;28;20011;-72
2021/03/03 08:03:42;;;;;;;4.95;2.22;;;24.60;66.80;;;;;;5070158;28;20020;-72
2021/03/03 08:06:51;;;;;;;9.50;2.92;;;24.60;66.60;;;;;;5069515;28;20021;-72
2021/03/03 08:09:57;;;;;;;8.85;2.10;;;24.70;66.50;;;;;;5070205;28;20033;-72
2021/03/03 08:12:43;;;;;;;;;;;24.70;66.40;;;;;;5070339;28;20023;-72
2021/03/03 08:16:05;;;;;;;6.90;1.77;;;24.80;66.20;;;;;;5069860;28;19963;-72
2021/03/03 08:19:11;;;;;;;5.38;1.88;;;24.90;66.00;;;;;;5041764;28;20032;-72
2021/03/03 08:21:57;;;;;;;;;;;24.90;65.50;;;;;;5070716;28;20036;-73
2021/03/03 08:25:18;;;;;;;4.22;1.73;;;25.00;65.20;;;;;;5070996;28;21231;-72
2021/03/03 08:28:24;;;;;;;14.93;4.53;;;25.00;64.80;;;;;;5057024;28;20031;-73
2021/03/03 08:31:09;;;;;;;;;;;25.10;64.50;;;;;;5064838;28;20024;-72
2021/03/03 08:34:15;;;;;;;6.03;1.98;;;25.10;64.40;;;;;;5070753;28;19908;-72
2021/03/03 08:36:41;;;;;;;5.32;1.63;;;25.20;63.90;;;;;;5069782;28;20021;-72
2021/03/03 08:39:11;;;;;;;4.60;1.85;;;25.30;63.80;;;;;;5068391;28;20047;-72
2021/03/03 08:42:17;;;;;;;3.28;1.17;;;25.30;63.60;;;;;;5070257;28;20111;-72
2021/03/03 08:45:29;;;;;;;7.68;1.67;;;25.30;63.20;;;;;;5071689;28;20028;-72
2021/03/03 08:48:35;;;;;;;10.55;1.83;;;25.40;63.00;;;;;;5067684;28;20039;-72
2021/03/03 08:51:21;;;;;;;;;;;25.40;62.70;;;;;;5070483;28;20120;-73
2021/03/03 08:54:30;;;;;;;2.65;1.25;;;25.40;62.20;;;;;;5070363;28;19979;-72
2021/03/03 08:57:45;;;;;;;3.22;1.17;;;25.50;61.90;;;;;;5070018;28;20091;-72
2021/03/03 09:00:54;;;;;;;3.78;1.30;;;25.50;61.30;;;;;;5070208;28;20099;-73
2021/03/03 09:04:00;;;;;;;5.28;1.55;;;25.60;61.20;;;;;;5068874;28;20510;-72
2021/03/03 09:06:46;;;;;;;;;;;25.60;61.40;;;;;;5070962;28;20021;-73
2021/03/03 09:10:01;;;;;;;3.53;1.60;;;25.60;61.60;;;;;;5066860;28;19919;-73
2021/03/03 09:13:07;;;;;;;4.13;1.50;;;25.60;61.80;;;;;;5069113;28;20387;-72
2021/03/03 09:15:53;;;;;;;;;;;25.70;62.10;;;;;;5069743;28;20521;-73
2021/03/03 09:18:59;;;;;;;4.47;1.42;;;25.70;62.00;;;;;;5070295;28;19947;-73
2021/03/03 09:22:05;;;;;;;3.45;1.30;;;25.80;62.10;;;;;;5070824;28;20029;-72
2021/03/03 09:24:52;;;;;;;;;;;25.80;62.00;;;;;;5069716;28;20131;-73
2021/03/03 09:27:58;;;;;;;8.43;2.83;;;25.80;62.00;;;;;;5069382;28;20347;-72
2021/03/03 09:30:44;;;;;;;;;;;25.90;62.00;;;;;;5067950;28;20479;-72
2021/03/03 09:33:50;;;;;;;4.10;1.60;;;25.90;61.90;;;;;;5070117;28;20335;-73
2021/03/03 09:36:35;;;;;;;;;;;25.90;61.70;;;;;;5069682;28;20024;-73
2021/03/03 09:39:41;;;;;;;5.47;1.42;;;26.00;61.60;;;;;;5068207;28;19905;-72
2021/03/03 09:42:48;;;;;;;5.57;1.63;;;26.00;61.10;;;;;;5069847;28;20495;-72
2021/03/03 09:45:57;;;;;;;6.78;1.52;;;26.10;60.80;;;;;;5067844;28;20521;-72
2021/03/03 09:49:06;;;;;;;7.70;1.92;;;26.10;60.70;;;;;;5069056;28;20032;-72
2021/03/03 09:52:12;;;;;;;2.70;1.35;;;26.20;60.40;;;;;;5066644;28;20434;-72
2021/03/03 09:55:18;;;;;;;5.63;2.08;;;26.20;60.00;;;;;;5070207;28;20024;-72
2021/03/03 09:58:24;;;;;;;5.13;1.65;;;26.30;59.80;;;;;;5070649;28;20578;-72
2021/03/03 10:01:30;;;;;;;3.97;1.33;;;26.30;59.80;;;;;;5067844;28;20451;-72
2021/03/03 10:04:52;;;;;;;5.80;2.13;;;26.30;59.70;;;;;;5068632;28;20046;-72
2021/03/03 10:07:58;;;;;;;7.97;1.88;;;26.30;59.40;;;;;;5069030;28;20021;-72
2021/03/03 10:11:07;;;;;;;6.10;1.55;;;26.30;59.40;;;;;;5067906;28;20025;-72
2021/03/03 10:14:16;;;;;;;7.45;1.73;;;26.30;59.60;;;;;;5066009;28;20024;-72
2021/03/03 10:17:22;;;;;;;6.60;2.22;;;26.40;59.60;;;;;;5065737;28;20269;-73
2021/03/03 10:20:29;;;;;;;4.88;1.27;;;26.40;59.40;;;;;;5068343;28;20044;-72
2021/03/03 10:23:35;;;;;;;4.53;1.17;;;26.50;59.10;;;;;;5066110;28;20068;-72
2021/03/03 10:26:47;;;;;;;2.80;1.00;;;26.50;58.40;;;;;;5068856;28;20496;-72
2021/03/03 10:29:56;;;;;;;4.38;1.50;;;26.60;58.30;;;;;;5068723;28;20025;-72
2021/03/03 10:33:02;;;;;;;4.72;1.45;;;26.60;58.20;;;;;;5067899;28;20050;-72
2021/03/03 10:36:08;;;;;;;3.05;1.10;;;26.60;58.10;;;;;;5066114;28;20494;-72
2021/03/03 10:39:15;;;;;;;5.43;1.40;;;26.70;58.00;;;;;;5067620;28;20029;-70
2021/03/03 10:42:21;;;;;;;3.05;1.42;;;26.70;57.80;;;;;;5069099;28;20033;-72
2021/03/03 10:45:42;;;;;;;6.15;1.80;;;26.80;58.00;;;;;;5068780;28;20584;-72
2021/03/03 10:48:48;;;;;;;5.13;1.52;;;26.80;58.00;;;;;;5068734;28;20544;-72
2021/03/03 10:51:54;;;;;;;5.55;1.30;;;26.90;58.30;;;;;;5067831;28;20491;-72
2021/03/03 10:55:09;;;;;;;4.65;1.10;;;26.90;58.30;;;;;;5068219;28;20087;-72
2021/03/03 10:58:21;;;;;;;1.98;1.30;;;26.90;58.30;;;;;;5067072;28;20021;-72
2021/03/03 11:01:43;;;;;;;5.15;1.20;;;27.00;58.30;;;;;;5069961;28;20165;-70
2021/03/03 11:04:58;;;;;;;10.15;1.65;;;27.00;58.10;;;;;;5066841;28;20028;-73
2021/03/03 11:08:04;;;;;;;7.38;2.00;;;27.00;58.00;;;;;;5066125;28;20384;-72
2021/03/03 11:11:10;;;;;;;2.88;0.93;;;27.10;57.80;;;;;;5064764;28;20025;-72
2021/03/03 11:14:17;;;;;;;6.65;1.15;;;27.20;57.70;;;;;;5069825;28;20430;-72
2021/03/03 11:17:26;;;;;;;4.32;1.15;;;27.20;57.50;;;;;;5070112;28;20032;-72
2021/03/03 11:20:32;;;;;;;3.35;0.82;;;27.30;57.50;;;;;;5067313;28;20518;-72
2021/03/03 11:23:38;;;;;;;3.45;1.25;;;27.30;57.30;;;;;;5049291;28;20379;-72
2021/03/03 11:26:44;;;;;;;2.75;1.10;;;27.30;57.10;;;;;;5070072;28;20048;-72
2021/03/03 11:29:50;;;;;;;2.90;0.93;;;27.40;56.70;;;;;;5069578;28;20048;-72
2021/03/03 11:32:56;;;;;;;5.63;1.17;;;27.40;56.70;;;;;;5067354;28;20033;-73
2021/03/03 11:36:02;;;;;;;8.63;1.40;;;27.50;56.70;;;;;;5073298;28;20483;-72
2021/03/03 11:39:08;;;;;;;3.42;1.48;;;27.50;56.60;;;;;;5050687;28;20372;-72
2021/03/03 11:42:14;;;;;;;6.05;1.30;;;27.60;56.30;;;;;;5071669;28;20086;-72
2021/03/03 11:45:20;;;;;;;2.63;1.50;;;27.60;56.20;;;;;;5072095;28;20021;-72
2021/03/03 11:48:26;;;;;;;4.97;1.17;;;27.70;56.20;;;;;;5074399;28;20054;-73
2021/03/03 11:51:33;;;;;;;5.30;1.20;;;27.70;55.90;;;;;;5072377;28;20027;-73
2021/03/03 11:54:39;;;;;;;4.90;1.40;;;27.70;56.50;;;;;;5069466;28;20452;-72
2021/03/03 11:57:45;;;;;;;6.13;0.93;;;27.70;55.90;;;;;;5072317;28;20017;-72
2021/03/03 12:00:51;;;;;;;3.33;1.10;;;27.70;55.70;;;;;;5069765;28;20536;-72
2021/03/03 12:03:57;;;;;;;4.65;0.82;;;27.80;55.50;;;;;;5071760;28;20021;-70
2021/03/03 12:07:03;;;;;;;5.18;1.23;;;27.70;55.50;;;;;;5071714;28;20575;-72
2021/03/03 12:10:09;;;;;;;7.50;1.98;;;27.70;55.50;;;;;;5070673;28;20031;-72
2021/03/03 12:13:15;;;;;;;2.38;0.95;;;27.80;55.60;;;;;;5071152;28;20024;-72
2021/03/03 12:16:21;;;;;;;3.20;1.92;;;27.80;55.60;;;;;;5071068;28;20066;-72
2021/03/03 12:19:27;;;;;;;5.05;1.52;;;27.80;55.50;;;;;;5070207;28;20726;-72
2021/03/03 12:22:34;;;;;;;1.85;0.95;;;27.90;55.30;;;;;;5072389;28;20556;-70
2021/03/03 12:25:40;;;;;;;4.80;1.65;;;27.90;55.20;;;;;;5069475;28;20047;-71
2021/03/03 12:28:46;;;;;;;4.40;1.35;;;28.00;55.10;;;;;;5069539;28;20086;-71
2021/03/03 12:31:52;;;;;;;3.13;1.20;;;27.90;55.00;;;;;;5071455;28;20039;-71
2021/03/03 12:34:58;;;;;;;3.08;1.25;;;27.90;55.00;;;;;;5070218;28;20474;-71
2021/03/03 12:38:04;;;;;;;2.80;1.00;;;27.90;55.10;;;;;;5069561;28;20494;-72
2021/03/03 12:41:10;;;;;;;4.45;1.17;;;28.00;55.00;;;;;;5070943;28;20078;-72
2021/03/03 12:44:16;;;;;;;7.75;1.40;;;28.00;54.90;;;;;;5069566;28;20024;-72
2021/03/03 12:47:22;;;;;;;4.05;1.27;;;28.00;54.80;;;;;;5071413;28;20032;-71
2021/03/03 12:50:28;;;;;;;4.63;1.10;;;28.10;54.70;;;;;;5069557;28;20456;-72
2021/03/03 12:53:34;;;;;;;3.67;1.30;;;28.10;54.50;;;;;;5071524;28;20024;-72
2021/03/03 12:56:41;;;;;;;2.15;0.90;;;28.10;54.50;;;;;;5069818;28;20021;-72
2021/03/03 12:59:47;;;;;;;3.17;1.65;;;28.10;54.30;;;;;;5070043;28;20122;-72
2021/03/03 13:02:53;;;;;;;6.07;1.20;;;28.20;54.20;;;;;;5067952;28;20425;-72
2021/03/03 13:06:00;;;;;;;2.97;1.00;;;28.20;54.30;;;;;;5071355;28;20449;-72
2021/03/03 13:09:06;;;;;;;2.67;1.02;;;28.20;54.30;;;;;;5069249;28;20058;-72
2021/03/03 13:12:12;;;;;;;5.00;1.10;;;28.30;54.20;;;;;;5068983;28;20480;-71
2021/03/03 13:15:18;;;;;;;3.67;1.10;;;28.30;54.10;;;;;;5068994;28;20028;-72
2021/03/03 13:18:25;;;;;;;2.80;1.00;;;28.30;54.00;;;;;;5069171;28;20365;-72
2021/03/03 13:21:31;;;;;;;2.47;1.42;;;28.30;54.00;;;;;;5068651;28;20044;-72
2021/03/03 13:24:38;;;;;;;5.57;1.10;;;28.30;54.00;;;;;;5067812;28;20031;-71
2021/03/03 13:27:44;;;;;;;4.05;1.08;;;28.30;54.00;;;;;;5069765;28;20024;-72
2021/03/03 13:30:50;;;;;;;6.53;1.42;;;28.30;54.10;;;;;;5069279;28;20074;-72
2021/03/03 13:33:56;;;;;;;1.45;1.10;;;28.30;54.10;;;;;;5069938;28;20029;-72
2021/03/03 13:37:05;;;;;;;5.55;1.83;;;28.20;54.10;;;;;;5068297;28;20025;-71
2021/03/03 13:40:12;;;;;;;5.03;1.30;;;28.20;54.20;;;;;;5070790;28;20111;-72
2021/03/03 13:43:18;;;;;;;2.42;1.10;;;28.20;54.40;;;;;;5069376;28;20095;-72
2021/03/03 13:46:27;;;;;;;9.05;1.45;;;28.20;54.40;;;;;;5070474;28;20575;-71
2021/03/03 13:49:33;;;;;;;4.80;1.20;;;28.20;54.30;;;;;;5070508;28;20087;-71
2021/03/03 13:52:40;;;;;;;7.63;1.52;;;28.20;53.90;;;;;;5048735;28;20036;-72
2021/03/03 13:55:46;;;;;;;5.35;0.85;;;28.20;53.80;;;;;;5068278;28;20017;-71
2021/03/03 13:58:52;;;;;;;9.40;1.63;;;28.20;53.80;;;;;;5067675;28;20639;-71
2021/03/03 14:01:58;;;;;;;5.15;0.98;;;28.10;53.80;;;;;;5052193;28;20064;-72
2021/03/03 14:05:04;;;;;;;7.13;0.90;;;28.10;54.00;;;;;;5069605;28;20024;-72
2021/03/03 14:08:10;;;;;;;5.20;1.98;;;28.10;54.10;;;;;;5067181;28;20025;-71
2021/03/03 14:11:17;;;;;;;2.08;1.02;;;28.10;54.20;;;;;;5068935;28;20048;-72